Time;durP1;ratioP1;P1;durP2;ratioP2;P2;SDS_P1;SDS_P2;PMS_P1;PMS_P2;Temp;Humidity;BMP_temperature;BMP_pressure;BME280_temperature;BME280_humidity;BME280_pressure;Samples;Min_cycle;Max_cycle;Signal;HPM_P1;HPM_P2
2022/03/30 00:01:00;;;;;;;14.75;6.30;;;;;;;3.16;66.50;100267.73;1665455;84;21089;-87
2022/03/30 00:03:32;;;;;;;13.85;5.72;;;;;;;3.12;66.43;100268.00;1699022;82;21516;-87
2022/03/30 00:05:58;;;;;;;12.70;5.85;;;;;;;3.07;66.49;100267.77;1715519;82;21049;-88
2022/03/30 00:08:25;;;;;;;11.93;5.40;;;;;;;3.05;66.65;100262.02;1739818;82;21767;-87
2022/03/30 00:10:52;;;;;;;10.25;4.87;;;;;;;3.01;66.52;100255.78;1723226;82;21009;-87
2022/03/30 00:13:18;;;;;;;15.10;4.95;;;;;;;2.96;66.52;100252.06;1736779;82;20990;-88
2022/03/30 00:15:45;;;;;;;13.32;4.97;;;;;;;2.90;66.58;100253.08;1725707;82;21097;-88
2022/03/30 00:18:12;;;;;;;15.05;5.55;;;;;;;2.88;66.60;100248.22;1711162;82;21064;-88
2022/03/30 00:20:38;;;;;;;20.95;7.28;;;;;;;2.81;66.43;100237.05;1710902;82;22584;-88
2022/03/30 00:23:05;;;;;;;14.18;6.05;;;;;;;2.74;66.45;100237.18;1671950;84;21058;-88
2022/03/30 00:25:32;;;;;;;16.23;6.62;;;;;;;2.66;66.47;100231.58;1691547;84;21632;-88
2022/03/30 00:27:58;;;;;;;18.95;7.53;;;;;;;2.66;66.72;100238.08;1661207;85;21032;-87
2022/03/30 00:30:25;;;;;;;14.30;6.55;;;;;;;2.64;66.66;100242.73;1707612;83;21051;-88
2022/03/30 00:32:52;;;;;;;21.05;7.42;;;;;;;2.57;66.65;100243.24;1708573;83;22451;-88
2022/03/30 00:35:18;;;;;;;14.05;5.65;;;;;;;2.50;66.75;100242.07;1704394;82;21042;-86
2022/03/30 00:37:45;;;;;;;13.15;5.60;;;;;;;2.43;66.88;100242.16;1679577;84;21077;-86
2022/03/30 00:40:15;;;;;;;14.10;6.10;;;;;;;2.38;67.03;100238.86;1700968;84;21239;-86
2022/03/30 00:42:41;;;;;;;17.70;6.70;;;;;;;2.38;67.29;100244.05;1708209;83;21097;-86
2022/03/30 00:45:17;;;;;;;18.07;7.75;;;;;;;2.38;67.53;100238.86;1707998;84;21768;-86
2022/03/30 00:47:44;;;;;;;17.00;6.97;;;;;;;2.40;67.67;100235.92;1683466;84;21082;-86
2022/03/30 00:50:13;;;;;;;17.20;7.22;;;;;;;2.43;67.77;100233.48;1707985;83;21078;-87
2022/03/30 00:52:40;;;;;;;14.60;7.92;;;;;;;2.44;67.89;100230.05;1707964;84;21596;-87
2022/03/30 00:55:08;;;;;;;21.75;8.23;;;;;;;2.48;67.97;100230.72;1691362;83;21098;-87
2022/03/30 00:57:36;;;;;;;17.17;8.10;;;;;;;2.51;68.02;100225.23;1685216;84;21755;-86
2022/03/30 01:00:08;;;;;;;18.85;7.97;;;;;;;2.55;68.10;100228.88;1693913;84;21745;-86
2022/03/30 01:02:38;;;;;;;17.45;8.50;;;;;;;2.59;68.12;100228.62;1687645;83;21094;-85
2022/03/30 01:05:06;;;;;;;16.00;8.23;;;;;;;2.59;68.17;100234.73;1708080;83;21038;-87
2022/03/30 01:07:33;;;;;;;17.10;8.20;;;;;;;2.63;68.32;100234.47;1708124;83;21038;-86
2022/03/30 01:09:59;;;;;;;15.53;8.03;;;;;;;2.69;68.36;100232.16;1687878;84;21759;-84
2022/03/30 01:12:54;;;;;;;15.83;8.30;;;;;;;2.72;68.30;100234.89;1708097;84;21058;-87
2022/03/30 01:15:39;;;;;;;20.27;8.10;;;;;;;2.76;68.40;100235.92;1692107;84;21611;-85
2022/03/30 01:18:06;;;;;;;20.05;8.10;;;;;;;2.84;68.40;100230.70;1708301;83;21055;-85
2022/03/30 01:20:33;;;;;;;23.65;9.35;;;;;;;2.88;68.41;100225.71;1697900;83;21102;-86
2022/03/30 01:23:02;;;;;;;19.23;9.03;;;;;;;2.93;68.42;100228.55;1698872;84;21714;-86
2022/03/30 01:25:29;;;;;;;20.00;9.20;;;;;;;3.00;68.45;100229.28;1708108;82;21357;-86
2022/03/30 01:27:56;;;;;;;17.45;8.85;;;;;;;3.05;68.40;100226.92;1708161;83;21575;-86
2022/03/30 01:33:09;;;;;;;17.40;8.63;;;;;;;3.13;68.35;100222.07;1747928;80;21033;-87
2022/03/30 01:35:36;;;;;;;21.02;9.25;;;;;;;3.18;68.38;100225.78;1748965;82;22453;-87
2022/03/30 01:38:05;;;;;;;18.42;8.40;;;;;;;3.21;68.41;100226.81;1748425;82;21017;-86
2022/03/30 01:40:32;;;;;;;17.77;8.83;;;;;;;3.23;68.36;100219.97;1742742;81;21032;-87
2022/03/30 01:42:59;;;;;;;20.10;9.23;;;;;;;3.25;68.36;100219.63;1694711;83;21325;-88
2022/03/30 01:45:26;;;;;;;17.87;9.48;;;;;;;3.26;68.29;100214.89;1717763;82;20966;-87
2022/03/30 01:47:58;;;;;;;16.10;8.35;;;;;;;3.24;68.18;100212.63;1749104;81;21754;-87
2022/03/30 01:50:23;;;;;;;17.40;8.90;;;;;;;3.22;68.15;100199.97;1727466;82;21130;-88
2022/03/30 01:52:50;;;;;;;16.25;9.08;;;;;;;3.22;68.17;100199.09;1749070;81;20986;-88
2022/03/30 01:55:17;;;;;;;19.05;8.95;;;;;;;3.18;68.05;100201.08;1748517;82;20989;-89
2022/03/30 01:57:44;;;;;;;16.30;9.10;;;;;;;3.09;68.04;100194.61;1720524;82;21040;-89
2022/03/30 02:00:15;;;;;;;20.75;9.78;;;;;;;3.05;68.18;100188.80;1719205;83;21780;-88
2022/03/30 02:02:42;;;;;;;20.20;10.85;;;;;;;3.04;68.27;100188.72;1746431;82;20978;-88
2022/03/30 02:05:09;;;;;;;20.32;9.98;;;;;;;3.02;68.36;100186.46;1748876;82;21541;-88
2022/03/30 02:07:38;;;;;;;19.42;9.70;;;;;;;3.01;68.36;100179.08;1748642;80;21018;-86
2022/03/30 02:10:06;;;;;;;18.00;9.30;;;;;;;3.01;68.37;100183.41;1720054;81;21081;-85
2022/03/30 02:12:33;;;;;;;18.42;9.73;;;;;;;2.98;68.30;100176.75;1735825;82;21832;-86
2022/03/30 02:15:00;;;;;;;17.15;9.00;;;;;;;2.95;68.40;100168.41;1727613;82;21022;-86
2022/03/30 02:17:27;;;;;;;19.87;9.43;;;;;;;2.90;68.31;100169.48;1734194;80;21059;-86
2022/03/30 02:19:55;;;;;;;16.48;9.25;;;;;;;2.85;68.30;100170.09;1742373;82;21546;-86
2022/03/30 02:22:22;;;;;;;24.37;9.40;;;;;;;2.81;68.45;100165.16;1736888;82;21084;-86
2022/03/30 02:24:50;;;;;;;18.02;8.78;;;;;;;2.81;68.64;100165.16;1719516;82;21776;-87
2022/03/30 02:27:22;;;;;;;20.40;10.50;;;;;;;2.82;68.70;100169.55;1749106;81;21021;-87
2022/03/30 02:29:50;;;;;;;16.07;8.73;;;;;;;2.83;68.75;100168.70;1728885;81;21091;-86
2022/03/30 02:32:17;;;;;;;20.62;9.30;;;;;;;2.85;68.75;100166.19;1748601;82;21049;-86
2022/03/30 02:34:44;;;;;;;19.65;8.53;;;;;;;2.82;68.68;100169.97;1749213;82;21065;-86
2022/03/30 02:37:11;;;;;;;20.65;9.63;;;;;;;2.79;68.77;100169.39;1742660;82;22634;-86
2022/03/30 02:39:38;;;;;;;17.73;9.58;;;;;;;2.76;68.74;100164.45;1734230;82;21053;-86
2022/03/30 02:42:06;;;;;;;20.30;9.83;;;;;;;2.72;68.78;100165.63;1744994;82;21010;-86
2022/03/30 02:44:36;;;;;;;18.55;9.65;;;;;;;2.75;68.97;100160.98;1732005;82;21579;-86
2022/03/30 02:47:03;;;;;;;18.75;8.93;;;;;;;2.78;69.01;100165.41;1748871;80;21045;-86
2022/03/30 02:49:30;;;;;;;18.87;9.20;;;;;;;2.78;68.99;100159.83;1737550;81;21771;-86
2022/03/30 02:51:57;;;;;;;20.35;9.13;;;;;;;2.78;68.99;100160.22;1718850;82;21000;-85
2022/03/30 02:54:24;;;;;;;18.95;10.15;;;;;;;2.74;68.92;100161.81;1727642;82;21319;-85
2022/03/30 02:56:51;;;;;;;25.50;12.45;;;;;;;2.68;68.91;100159.81;1748676;81;21187;-84
2022/03/30 02:59:19;;;;;;;33.92;16.57;;;;;;;2.61;68.90;100157.74;1727809;81;21033;-87
2022/03/30 03:01:46;;;;;;;40.00;20.25;;;;;;;2.57;69.04;100158.39;1727630;81;23604;-86
2022/03/30 03:04:13;;;;;;;39.78;18.25;;;;;;;2.55;69.19;100157.84;1743601;82;21298;-85
2022/03/30 03:06:40;;;;;;;31.05;14.23;;;;;;;2.51;69.15;100154.20;1748704;81;21053;-87
2022/03/30 03:09:08;;;;;;;26.00;13.30;;;;;;;2.45;69.16;100157.41;1748995;81;21010;-87
2022/03/30 03:11:35;;;;;;;23.95;13.18;;;;;;;2.38;69.28;100157.92;1727888;81;21049;-86
2022/03/30 03:14:05;;;;;;;23.85;12.55;;;;;;;2.34;69.40;100159.89;1749085;81;21773;-87
2022/03/30 03:16:32;;;;;;;23.47;11.48;;;;;;;2.32;69.50;100156.34;1727839;82;21469;-87
2022/03/30 03:18:59;;;;;;;22.70;11.85;;;;;;;2.30;69.59;100158.85;1736345;82;21040;-87
2022/03/30 03:21:26;;;;;;;26.15;12.35;;;;;;;2.28;69.74;100153.11;1740133;82;21534;-88
2022/03/30 03:23:52;;;;;;;23.05;12.43;;;;;;;2.30;69.87;100158.85;1739717;81;21016;-90
2022/03/30 03:26:21;;;;;;;28.55;15.05;;;;;;;2.33;69.96;100152.94;1738037;82;21722;-86
2022/03/30 03:28:47;;;;;;;26.93;16.10;;;;;;;2.37;69.91;100158.75;1727671;82;21060;-86
2022/03/30 03:31:15;;;;;;;30.95;17.62;;;;;;;2.37;69.88;100157.45;1741758;81;21041;-85
2022/03/30 03:33:41;;;;;;;37.23;19.45;;;;;;;2.37;69.91;100156.16;1740668;81;21082;-86
2022/03/30 03:36:08;;;;;;;33.05;17.70;;;;;;;2.33;69.92;100151.22;1740953;82;21026;-87
2022/03/30 03:38:34;;;;;;;36.65;17.23;;;;;;;2.39;69.94;100157.12;1738884;82;21755;-87
2022/03/30 03:41:06;;;;;;;32.00;14.75;;;;;;;2.38;69.83;100159.64;1722375;82;21527;-85
2022/03/30 03:43:30;;;;;;;32.63;14.35;;;;;;;2.33;69.75;100164.20;1718825;82;21335;-85
2022/03/30 03:45:57;;;;;;;25.37;14.15;;;;;;;2.25;69.68;100156.47;1731458;81;21239;-84
2022/03/30 03:48:23;;;;;;;26.57;13.08;;;;;;;2.17;69.72;100160.79;1729284;82;21038;-85
2022/03/30 03:50:50;;;;;;;30.08;13.40;;;;;;;2.08;69.70;100155.64;1733900;82;22542;-86
2022/03/30 03:53:17;;;;;;;29.07;15.83;;;;;;;2.00;69.78;100158.66;1726412;82;20999;-85
2022/03/30 03:55:43;;;;;;;36.90;18.27;;;;;;;1.90;69.80;100161.20;1740462;81;21040;-86
2022/03/30 03:58:12;;;;;;;35.23;18.62;;;;;;;1.80;69.86;100156.35;1727336;82;21041;-86
2022/03/30 04:00:39;;;;;;;38.85;18.75;;;;;;;1.71;69.99;100160.69;1710648;82;21465;-81
2022/03/30 04:03:05;;;;;;;36.70;19.82;;;;;;;1.65;70.18;100157.38;1721341;82;22626;-83
2022/03/30 04:05:32;;;;;;;38.78;18.50;;;;;;;1.66;70.45;100162.16;1740365;82;21046;-92
2022/03/30 04:07:59;;;;;;;29.85;15.72;;;;;;;1.71;70.59;100160.69;1702244;82;21041;-92
2022/03/30 04:10:28;;;;;;;33.73;15.48;;;;;;;1.76;70.70;100161.79;1729131;82;21011;-91
2022/03/30 04:12:55;;;;;;;29.63;15.00;;;;;;;1.77;70.74;100162.29;1732036;81;20998;-88
2022/03/30 04:15:23;;;;;;;31.17;12.65;;;;;;;1.85;70.89;100160.08;1720370;82;21754;-86
2022/03/30 04:17:54;;;;;;;24.32;12.18;;;;;;;1.94;70.98;100160.55;1740171;82;21259;-87
2022/03/30 04:20:21;;;;;;;23.47;11.80;;;;;;;2.02;70.93;100164.81;1719418;82;20998;-85
2022/03/30 04:22:48;;;;;;;33.85;16.05;;;;;;;2.06;70.91;100170.22;1723107;82;21533;-84
2022/03/30 04:25:14;;;;;;;30.97;16.00;;;;;;;2.10;70.93;100166.07;1736791;81;21049;-86
2022/03/30 04:27:48;;;;;;;32.28;14.03;;;;;;;2.16;70.92;100170.67;1740150;82;21762;-86
2022/03/30 04:30:17;;;;;;;22.93;13.50;;;;;;;2.19;70.81;100173.44;1738217;81;21108;-86
2022/03/30 04:32:44;;;;;;;28.60;14.03;;;;;;;2.18;70.66;100171.25;1742761;82;21102;-84
2022/03/30 04:35:14;;;;;;;27.75;12.80;;;;;;;2.15;70.54;100174.98;1739558;80;21209;-88
2022/03/30 04:37:40;;;;;;;29.55;14.20;;;;;;;2.10;70.51;100173.48;1682468;83;21075;-80
2022/03/30 04:40:09;;;;;;;30.20;13.78;;;;;;;2.00;70.42;100172.52;1745133;80;22564;-81
2022/03/30 04:42:35;;;;;;;27.48;11.55;;;;;;;1.94;70.64;100169.21;1748192;81;21054;-80
2022/03/30 04:45:02;;;;;;;24.87;11.15;;;;;;;1.92;70.69;100176.03;1722629;82;21061;-80
2022/03/30 04:47:30;;;;;;;22.15;10.58;;;;;;;1.90;70.90;100176.36;1730030;81;21246;-80
2022/03/30 04:49:57;;;;;;;23.22;10.60;;;;;;;1.93;70.95;100182.11;1731874;81;21014;-80
2022/03/30 04:52:23;;;;;;;26.60;11.28;;;;;;;1.98;71.05;100183.66;1726560;82;21674;-80
2022/03/30 04:54:50;;;;;;;28.30;9.98;;;;;;;1.99;71.06;100182.44;1731206;82;21041;-80
2022/03/30 04:57:17;;;;;;;22.37;9.78;;;;;;;2.03;71.18;100178.29;1743290;80;21558;-80
2022/03/30 04:59:44;;;;;;;19.55;10.30;;;;;;;2.10;71.23;100185.16;1733373;82;21006;-80
2022/03/30 05:02:10;;;;;;;19.45;9.53;;;;;;;2.17;71.21;100186.34;1747416;80;21044;-80
2022/03/30 05:04:37;;;;;;;22.50;10.23;;;;;;;2.20;71.09;100187.80;1731180;81;21915;-80
2022/03/30 05:07:03;;;;;;;22.17;9.13;;;;;;;2.28;71.23;100189.47;1747913;82;21511;-81
2022/03/30 05:09:30;;;;;;;23.12;10.25;;;;;;;2.36;71.19;100190.72;1727051;82;21080;-80
2022/03/30 05:11:57;;;;;;;22.20;10.53;;;;;;;2.36;71.04;100201.53;1748262;80;21044;-79
2022/03/30 05:14:23;;;;;;;24.12;10.82;;;;;;;2.38;71.13;100199.48;1747903;81;20990;-80
2022/03/30 05:16:52;;;;;;;29.70;11.95;;;;;;;2.46;71.18;100207.26;1747578;82;21127;-81
2022/03/30 05:19:20;;;;;;;25.43;10.35;;;;;;;2.50;71.07;100217.39;1747358;80;21467;-80
2022/03/30 05:21:47;;;;;;;20.43;9.03;;;;;;;2.43;70.88;100214.89;1747936;81;21096;-81
2022/03/30 05:24:13;;;;;;;20.02;9.85;;;;;;;2.28;70.89;100217.62;1748084;80;21045;-77
2022/03/30 05:26:40;;;;;;;25.82;8.58;;;;;;;2.28;71.02;100228.42;1729146;81;21577;-79
2022/03/30 05:29:07;;;;;;;20.68;8.68;;;;;;;2.27;70.86;100221.05;1747912;82;21757;-80
2022/03/30 05:31:33;;;;;;;17.92;8.03;;;;;;;2.24;70.69;100227.37;1742680;81;21029;-81
2022/03/30 05:34:00;;;;;;;20.97;11.85;;;;;;;2.19;70.34;100225.37;1737097;82;20994;-80
2022/03/30 05:36:27;;;;;;;24.85;12.43;;;;;;;2.07;69.93;100224.35;1740280;82;21193;-81
2022/03/30 05:38:54;;;;;;;36.58;14.75;;;;;;;1.92;69.60;100225.77;1721797;82;21061;-81
2022/03/30 05:41:22;;;;;;;24.00;13.45;;;;;;;1.83;69.72;100237.84;1739813;82;21021;-81
2022/03/30 05:43:49;;;;;;;16.55;9.45;;;;;;;1.76;69.57;100244.83;1740362;81;21073;-81
2022/03/30 05:46:15;;;;;;;18.23;9.68;;;;;;;1.65;69.78;100248.56;1740914;82;21022;-81
2022/03/30 05:48:42;;;;;;;16.32;8.85;;;;;;;1.56;69.96;100245.09;1739437;81;21084;-81
2022/03/30 05:51:08;;;;;;;20.68;7.80;;;;;;;1.54;70.08;100257.09;1713585;82;21040;-81
2022/03/30 05:53:35;;;;;;;17.70;8.00;;;;;;;1.52;69.98;100266.47;1714539;82;22731;-81
2022/03/30 05:56:03;;;;;;;14.65;6.25;;;;;;;1.47;69.97;100270.55;1740415;81;21029;-79
2022/03/30 05:58:33;;;;;;;13.25;5.12;;;;;;;1.43;70.04;100280.27;1740279;81;21121;-82
2022/03/30 06:01:06;;;;;;;10.50;5.67;;;;;;;1.33;69.96;100280.16;1716692;81;21531;-81
2022/03/30 06:03:37;;;;;;;9.43;4.72;;;;;;;1.27;70.09;100278.13;1740108;81;21586;-81
2022/03/30 06:06:07;;;;;;;10.60;4.30;;;;;;;1.21;70.03;100286.87;1735144;81;22625;-80
2022/03/30 06:08:36;;;;;;;7.87;4.20;;;;;;;1.16;70.08;100285.72;1740333;81;21476;-80
2022/03/30 06:11:02;;;;;;;9.45;3.95;;;;;;;1.08;70.00;100287.89;1721146;82;21119;-81
2022/03/30 06:13:29;;;;;;;6.40;4.05;;;;;;;1.02;70.11;100298.33;1739426;82;21519;-81
2022/03/30 06:15:55;;;;;;;8.55;3.60;;;;;;;0.99;70.20;100296.44;1724337;82;21135;-80
2022/03/30 06:18:22;;;;;;;12.80;3.65;;;;;;;0.99;70.33;100299.03;1731911;82;22035;-80
2022/03/30 06:20:57;;;;;;;13.28;4.15;;;;;;;1.03;70.55;100313.06;1724464;82;21523;-80
2022/03/30 06:23:23;;;;;;;7.10;2.87;;;;;;;1.07;70.61;100311.13;1690564;84;21028;-82
2022/03/30 06:25:51;;;;;;;7.60;3.27;;;;;;;1.04;70.34;100323.93;1679036;84;21136;-82
2022/03/30 06:28:21;;;;;;;8.93;2.98;;;;;;;0.93;70.24;100312.95;1686787;82;21618;-80
2022/03/30 06:30:46;;;;;;;10.72;4.05;;;;;;;0.89;70.36;100329.14;1689803;83;21633;-80
2022/03/30 06:33:13;;;;;;;8.65;3.42;;;;;;;0.83;70.38;100324.50;1689051;84;21095;-80
2022/03/30 06:35:40;;;;;;;11.35;3.50;;;;;;;0.83;70.51;100330.09;1689066;83;21588;-80
2022/03/30 06:38:07;;;;;;;7.58;3.50;;;;;;;0.84;70.54;100335.34;1689189;83;21102;-80
2022/03/30 06:40:33;;;;;;;7.90;3.30;;;;;;;0.81;70.52;100344.25;1669430;84;21055;-80
2022/03/30 06:43:00;;;;;;;4.75;2.92;;;;;;;0.80;70.54;100345.45;1689260;84;22502;-80
2022/03/30 06:45:27;;;;;;;6.25;2.70;;;;;;;0.80;70.49;100351.93;1689110;83;21067;-80
2022/03/30 06:47:54;;;;;;;6.17;2.47;;;;;;;0.81;70.53;100354.61;1689396;84;21170;-81
2022/03/30 06:50:21;;;;;;;7.42;3.10;;;;;;;0.80;70.36;100361.00;1669019;84;21017;-81
2022/03/30 06:52:49;;;;;;;8.53;3.45;;;;;;;0.80;70.42;100365.77;1660456;85;21118;-80
2022/03/30 06:55:41;;;;;;;9.50;5.03;;;;;;;0.81;70.27;100362.77;1687303;84;21794;-81
2022/03/30 06:58:07;;;;;;;21.17;9.75;;;;;;;0.80;70.02;100376.13;1660748;85;22555;-79
2022/03/30 07:00:34;;;;;;;8.28;4.60;;;;;;;0.77;69.92;100368.20;1713647;81;21042;-80
2022/03/30 07:03:06;;;;;;;10.08;4.50;;;;;;;0.80;69.80;100386.91;1730747;81;21554;-80
2022/03/30 07:05:33;;;;;;;12.50;2.90;;;;;;;0.78;69.69;100381.22;1732015;81;21054;-80
2022/03/30 07:10:45;;;;;;;6.80;2.85;;;;;;;0.81;69.44;100384.41;1717793;82;21560;-81
2022/03/30 07:13:12;;;;;;;9.63;3.55;;;;;;;0.80;69.28;100390.38;1731987;81;21055;-81
2022/03/30 07:15:38;;;;;;;10.72;4.40;;;;;;;0.83;69.25;100394.87;1732191;81;21077;-81
2022/03/30 07:18:08;;;;;;;8.48;3.72;;;;;;;0.87;69.24;100393.83;1732103;82;20975;-81
2022/03/30 07:20:34;;;;;;;5.97;3.02;;;;;;;0.91;69.05;100400.97;1732000;81;21883;-81
2022/03/30 07:23:01;;;;;;;5.87;2.58;;;;;;;0.99;69.12;100397.93;1711836;82;21041;-81
2022/03/30 07:25:30;;;;;;;9.23;3.10;;;;;;;1.03;68.99;100408.55;1692839;82;21069;-81
2022/03/30 07:27:58;;;;;;;8.58;2.95;;;;;;;1.03;68.85;100400.77;1702586;82;21067;-80
2022/03/30 07:30:25;;;;;;;8.83;4.53;;;;;;;1.07;69.01;100405.73;1729445;82;21057;-80
2022/03/30 07:32:53;;;;;;;7.83;2.95;;;;;;;1.10;69.20;100417.17;1739576;82;21773;-80
2022/03/30 07:35:22;;;;;;;4.47;2.12;;;;;;;1.06;68.91;100420.40;1740708;81;21108;-80
2022/03/30 07:37:49;;;;;;;4.53;1.95;;;;;;;1.05;68.91;100420.30;1740607;81;21661;-80
2022/03/30 07:40:17;;;;;;;5.35;2.67;;;;;;;1.05;68.83;100420.30;1740701;82;21551;-80
2022/03/30 07:42:49;;;;;;;7.72;3.08;;;;;;;1.03;68.68;100428.39;1715108;81;47344;-81
2022/03/30 07:45:16;;;;;;;3.12;2.08;;;;;;;1.00;68.60;100433.42;1719493;82;22743;-81
2022/03/30 07:47:43;;;;;;;4.15;2.10;;;;;;;0.92;68.39;100431.27;1740471;82;20991;-80
2022/03/30 07:50:10;;;;;;;6.30;3.02;;;;;;;0.84;68.59;100444.57;1721537;82;21143;-81
2022/03/30 07:52:37;;;;;;;6.15;2.20;;;;;;;0.88;68.68;100453.02;1731866;81;21002;-81
2022/03/30 07:55:06;;;;;;;4.65;1.82;;;;;;;0.91;68.67;100457.98;1727674;81;21099;-81
2022/03/30 07:57:32;;;;;;;2.77;1.80;;;;;;;0.89;68.63;100453.52;1719630;82;21760;-81
2022/03/30 08:00:02;;;;;;;3.12;1.85;;;;;;;0.93;68.61;100461.55;1740317;81;21045;-81
2022/03/30 08:02:28;;;;;;;3.83;1.90;;;;;;;0.95;68.56;100475.48;1740174;82;21053;-81
2022/03/30 08:04:55;;;;;;;6.42;1.65;;;;;;;0.90;68.30;100472.13;1740439;81;21033;-81
2022/03/30 08:07:22;;;;;;;8.60;1.98;;;;;;;0.83;68.27;100476.08;1740360;82;21010;-80
2022/03/30 08:09:49;;;;;;;8.80;2.30;;;;;;;0.86;68.42;100484.02;1736315;81;22619;-81
2022/03/30 08:12:15;;;;;;;6.05;2.02;;;;;;;0.87;68.27;100481.04;1710958;82;21040;-81
2022/03/30 08:14:43;;;;;;;3.67;2.00;;;;;;;0.91;68.28;100494.66;1733156;82;21551;-80
2022/03/30 08:17:10;;;;;;;7.75;2.30;;;;;;;0.95;68.31;100496.22;1729846;81;21060;-81
2022/03/30 08:19:37;;;;;;;3.15;1.82;;;;;;;0.99;68.16;100493.82;1730911;82;21113;-81
2022/03/30 08:24:50;;;;;;;5.65;2.58;;;;;;;1.07;67.96;100508.11;1711217;82;21056;-82
2022/03/30 08:27:24;;;;;;;7.55;3.00;;;;;;;1.05;67.68;100501.95;1740715;81;21041;-80
2022/03/30 08:29:52;;;;;;;5.45;2.90;;;;;;;1.04;67.60;100506.25;1719958;82;21047;-81
2022/03/30 08:32:19;;;;;;;4.53;1.98;;;;;;;1.04;67.37;100507.95;1724693;82;21096;-81
2022/03/30 08:34:46;;;;;;;5.20;2.65;;;;;;;1.01;67.25;100515.53;1748158;80;21961;-80
2022/03/30 08:37:13;;;;;;;4.47;2.52;;;;;;;1.00;67.32;100511.17;1727344;81;21097;-82
2022/03/30 08:39:40;;;;;;;3.25;2.02;;;;;;;1.02;67.28;100519.93;1748174;81;21119;-82
2022/03/30 08:42:08;;;;;;;4.95;2.30;;;;;;;1.10;67.42;100525.16;1744599;81;20963;-82
2022/03/30 08:44:36;;;;;;;6.10;2.17;;;;;;;1.16;67.33;100534.20;1718748;82;21146;-81
2022/03/30 08:47:03;;;;;;;3.00;1.40;;;;;;;1.21;67.06;100536.17;1741489;81;21822;-80
2022/03/30 08:49:37;;;;;;;4.50;1.87;;;;;;;1.22;66.79;100544.05;1737253;81;21057;-80
2022/03/30 08:52:02;;;;;;;4.33;1.77;;;;;;;1.23;66.55;100547.52;1718028;82;20998;-81
2022/03/30 08:54:29;;;;;;;3.05;1.75;;;;;;;1.20;66.43;100540.44;1748330;81;21989;-81
2022/03/30 08:56:55;;;;;;;4.17;1.60;;;;;;;1.24;66.51;100541.52;1748747;81;21045;-80
2022/03/30 08:59:23;;;;;;;6.78;2.10;;;;;;;1.30;66.44;100540.60;1741417;82;21755;-80
2022/03/30 09:01:52;;;;;;;3.80;1.77;;;;;;;1.30;66.32;100541.89;1721033;82;21083;-82
2022/03/30 09:04:19;;;;;;;4.03;1.45;;;;;;;1.30;66.21;100540.19;1744646;82;21622;-81
2022/03/30 09:06:48;;;;;;;4.90;1.80;;;;;;;1.36;66.33;100543.55;1742416;81;21072;-80
2022/03/30 09:09:33;;;;;;;7.75;2.50;;;;;;;1.40;66.20;100544.62;1748392;81;21103;-81
2022/03/30 09:12:01;;;;;;;2.90;1.82;;;;;;;1.46;66.39;100551.04;1738311;81;21746;-81
2022/03/30 09:14:30;;;;;;;3.02;2.00;;;;;;;1.52;66.46;100553.09;1737456;82;21064;-81
2022/03/30 09:16:59;;;;;;;6.33;4.03;;;;;;;1.58;66.18;100549.95;1719035;81;21019;-81
2022/03/30 09:19:27;;;;;;;3.40;2.60;;;;;;;1.61;66.06;100553.62;1718018;82;21544;-81
2022/03/30 09:22:00;;;;;;;4.90;1.95;;;;;;;1.58;65.96;100557.36;1745406;82;21121;-82
2022/03/30 09:24:32;;;;;;;6.28;2.55;;;;;;;1.63;65.97;100566.69;1743582;81;21053;-80
2022/03/30 09:26:59;;;;;;;5.03;2.95;;;;;;;1.62;65.86;100563.22;1726405;80;21060;-81
2022/03/30 09:29:31;;;;;;;7.78;3.70;;;;;;;1.67;65.81;100554.38;1748021;81;21134;-81
2022/03/30 09:31:59;;;;;;;6.72;3.25;;;;;;;1.71;65.74;100562.86;1738374;81;21026;-81
2022/03/30 09:34:26;;;;;;;5.87;3.12;;;;;;;1.79;65.75;100559.41;1681153;84;21017;-81
2022/03/30 09:36:53;;;;;;;4.75;2.35;;;;;;;1.79;65.64;100571.97;1700521;82;21760;-81
2022/03/30 09:39:36;;;;;;;4.50;2.02;;;;;;;1.75;65.47;100563.11;1713687;82;21594;-81
2022/03/30 09:42:05;;;;;;;3.60;1.90;;;;;;;1.73;65.52;100569.03;1731411;82;21031;-80
2022/03/30 09:44:51;;;;;;;46.50;19.62;;;;;;;1.78;65.59;100570.58;1731694;82;21625;-80
2022/03/30 09:47:19;;;;;;;10.15;4.78;;;;;;;1.83;65.35;100582.13;1706323;82;21128;-80
2022/03/30 09:49:54;;;;;;;5.70;2.52;;;;;;;1.86;65.37;100579.68;1717060;82;21684;-80
2022/03/30 09:52:26;;;;;;;5.03;2.00;;;;;;;1.92;65.21;100564.06;1731618;82;21089;-81
2022/03/30 09:54:59;;;;;;;8.40;5.67;;;;;;;2.02;65.18;100569.78;1731833;82;21547;-81
2022/03/30 09:57:29;;;;;;;20.55;13.68;;;;;;;2.07;64.95;100571.83;1731677;82;21114;-80
2022/03/30 10:00:08;;;;;;;23.70;13.83;;;;;;;2.10;64.75;100565.52;1716548;82;21084;-81
2022/03/30 10:02:41;;;;;;;42.43;23.32;;;;;;;2.23;64.91;100564.88;1722604;82;21786;-80
2022/03/30 10:05:10;;;;;;;3.37;2.20;;;;;;;2.42;64.74;100575.87;1716727;81;21632;-80
2022/03/30 10:07:36;;;;;;;8.48;3.25;;;;;;;2.48;64.61;100565.84;1712403;82;21010;-80
2022/03/30 10:10:05;;;;;;;4.67;2.10;;;;;;;2.56;64.52;100563.24;1722951;82;21056;-80
2022/03/30 10:12:32;;;;;;;48.45;26.77;;;;;;;2.68;64.04;100564.30;1718640;82;20998;-80
2022/03/30 10:14:58;;;;;;;10.48;5.80;;;;;;;2.76;63.48;100569.52;1731371;82;21692;-80
2022/03/30 10:17:26;;;;;;;25.48;11.88;;;;;;;2.82;62.24;100570.25;1731514;82;21054;-80
2022/03/30 10:19:57;;;;;;;9.53;5.85;;;;;;;2.85;62.49;100565.20;1711365;82;21053;-79
2022/03/30 10:22:41;;;;;;;7.25;3.67;;;;;;;2.93;61.62;100556.11;1731116;82;21018;-80
2022/03/30 10:25:35;;;;;;;3.27;1.62;;;;;;;2.97;61.03;100564.97;1711458;82;21069;-80
2022/03/30 10:28:26;;;;;;;2.80;1.40;;;;;;;3.07;61.06;100556.41;1717255;82;21754;-80
2022/03/30 10:31:26;;;;;;;4.10;2.58;;;;;;;3.23;60.77;100558.11;1716872;83;21132;-80
2022/03/30 10:33:42;;;;;;;7.87;3.72;;;;;;;3.31;60.29;100555.89;1697776;82;21131;-80
2022/03/30 10:36:29;;;;;;;10.48;3.98;;;;;;;3.31;59.97;100563.70;1720565;81;21757;-80
2022/03/30 10:39:24;;;;;;;6.15;1.60;;;;;;;3.39;59.56;100559.77;1736317;81;21081;-81
2022/03/30 10:41:57;;;;;;;15.23;1.62;;;;;;;3.49;59.36;100557.21;1735489;82;21791;-80
2022/03/30 10:44:46;;;;;;;5.50;3.22;;;;;;;3.66;59.11;100550.25;1705783;82;21628;-80
2022/03/30 10:47:26;;;;;;;13.50;3.02;;;;;;;3.94;58.99;100551.22;1728368;81;21163;-80
2022/03/30 10:49:55;;;;;;;7.78;2.40;;;;;;;4.06;58.17;100549.19;1732992;82;21221;-80
2022/03/30 10:52:40;;;;;;;7.70;2.72;;;;;;;4.14;57.99;100555.17;1728415;82;21109;-79
2022/03/30 10:55:19;;;;;;;3.87;1.62;;;;;;;4.16;57.54;100557.44;1721059;82;21816;-80
2022/03/30 10:57:51;;;;;;;2.45;1.70;;;;;;;4.21;56.81;100561.16;1704614;82;21078;-79
2022/03/30 11:00:29;;;;;;;23.10;13.25;;;;;;;4.25;56.50;100560.48;1704169;82;21678;-80
2022/03/30 11:03:17;;;;;;;10.93;4.03;;;;;;;4.25;56.31;100563.09;1713246;81;21080;-81
2022/03/30 11:05:46;;;;;;;4.17;1.80;;;;;;;4.44;56.28;100572.24;1748080;81;21032;-81
2022/03/30 11:08:36;;;;;;;10.60;6.92;;;;;;;4.35;56.11;100569.63;1701763;82;21855;-81
2022/03/30 11:11:22;;;;;;;6.70;2.10;;;;;;;4.34;56.01;100567.86;1721562;80;21614;-80
2022/03/30 11:13:51;;;;;;;5.17;2.25;;;;;;;4.36;55.83;100571.42;1714888;82;21091;-82
2022/03/30 11:16:18;;;;;;;6.22;3.00;;;;;;;4.07;54.88;100582.23;1735767;82;21034;-79
2022/03/30 11:19:00;;;;;;;3.25;2.27;;;;;;;3.79;54.82;100568.28;1739046;82;21423;-81
2022/03/30 11:21:27;;;;;;;4.42;2.72;;;;;;;3.59;54.38;100572.91;1695005;82;21842;-81
2022/03/30 11:24:07;;;;;;;5.62;1.98;;;;;;;3.38;54.25;100571.39;1747823;80;21033;-81
2022/03/30 11:26:54;;;;;;;2.35;1.07;;;;;;;3.23;54.41;100584.12;1726942;82;21530;-80
2022/03/30 11:29:52;;;;;;;3.52;1.82;;;;;;;3.08;54.04;100568.61;1747868;80;21092;-82
2022/03/30 11:32:37;;;;;;;3.27;1.50;;;;;;;3.02;54.39;100559.58;1743149;82;21093;-80
2022/03/30 11:35:10;;;;;;;4.28;2.25;;;;;;;2.90;53.97;100562.44;1738681;82;21735;-82
2022/03/30 11:37:46;;;;;;;3.47;1.50;;;;;;;2.88;54.10;100562.77;1709157;82;21082;-81
2022/03/30 11:40:22;;;;;;;3.42;1.55;;;;;;;2.88;53.79;100567.97;1710379;82;21103;-81
2022/03/30 11:42:55;;;;;;;5.17;2.00;;;;;;;2.86;53.86;100571.78;1739438;82;21123;-81
2022/03/30 11:45:25;;;;;;;5.03;1.57;;;;;;;2.85;53.68;100589.89;1717712;82;21049;-81